Time;durP1;ratioP1;P1;durP2;ratioP2;P2;SDS_P1;SDS_P2;PMS_P1;PMS_P2;Temp;Humidity;BMP_temperature;BMP_pressure;BME280_temperature;BME280_humidity;BME280_pressure;Samples;Min_cycle;Max_cycle;Signal;HPM_P1;HPM_P2
2022/02/09 00:00:56;;;;;;;26.87;20.53;;;;;;;9.08;100.00;102281.13;4992434;28;20219;-73
2022/02/09 00:03:24;;;;;;;27.13;20.07;;;;;;;9.09;100.00;102282.88;4991185;28;20191;-73
2022/02/09 00:06:03;;;;;;;25.70;19.90;;;;;;;9.08;100.00;102271.75;4986667;28;20199;-74
2022/02/09 00:08:29;;;;;;;24.30;19.57;;;;;;;9.10;100.00;102271.84;4990388;28;20219;-73
2022/02/09 00:11:00;;;;;;;26.77;19.83;;;;;;;9.10;100.00;102269.28;4991642;28;20736;-74
2022/02/09 00:19:01;;;;;;;27.47;21.97;;;;;;;9.11;100.00;102273.59;4991047;28;20183;-74
2022/02/09 00:22:00;;;;;;;28.30;21.27;;;;;;;9.12;100.00;102273.66;4992637;28;20219;-73
2022/02/09 00:27:23;;;;;;;24.70;20.63;;;;;;;9.17;100.00;102281.56;4989435;28;20730;-73
2022/02/09 00:30:19;;;;;;;28.43;20.57;;;;;;;9.14;100.00;102277.19;4992421;28;20258;-74
2022/02/09 00:33:01;;;;;;;23.80;20.27;;;;;;;9.15;100.00;102280.59;4992669;28;20195;-73
2022/02/09 00:38:28;;;;;;;24.60;20.73;;;;;;;9.14;100.00;102274.63;4991467;28;20267;-73
2022/02/09 01:03:08;;;;;;;25.87;19.60;;;;;;;9.14;100.00;102297.63;4985196;28;20184;-73
2022/02/09 01:42:02;;;;;;;21.33;17.33;;;;;;;9.05;99.41;102270.75;4995699;28;20223;-73
2022/02/09 01:44:29;;;;;;;22.17;17.70;;;;;;;9.04;99.46;102272.41;4986910;28;20694;-73
2022/02/09 01:55:34;;;;;;;23.53;19.63;;;;;;;9.02;100.00;102271.47;5003224;28;20364;-73
2022/02/09 01:57:32;;;;;;;25.23;19.33;;;;;;;9.01;100.00;102267.19;4989393;28;20196;-73
2022/02/09 01:59:57;;;;;;;26.47;19.93;;;;;;;9.00;100.00;102267.09;4983199;28;20803;-74
2022/02/09 02:02:23;;;;;;;27.47;19.53;;;;;;;9.01;100.00;102271.38;5004518;28;20270;-73
2022/02/09 02:04:49;;;;;;;27.83;20.67;;;;;;;9.00;99.68;102264.53;4989836;28;20188;-73
2022/02/09 02:07:31;;;;;;;26.60;21.53;;;;;;;8.98;100.00;102256.78;4989604;28;20191;-73
2022/02/09 02:10:03;;;;;;;25.83;22.20;;;;;;;8.97;100.00;102260.16;4989172;28;20203;-74
2022/02/09 02:12:31;;;;;;;29.47;22.47;;;;;;;8.95;100.00;102256.66;4988424;28;20200;-73
2022/02/09 02:15:02;;;;;;;25.93;21.17;;;;;;;8.94;100.00;102260.00;5016036;28;20307;-73
2022/02/09 02:17:37;;;;;;;24.53;19.10;;;;;;;8.94;100.00;102259.16;4989594;28;20734;-73
2022/02/09 02:20:13;;;;;;;26.37;20.63;;;;;;;8.91;100.00;102259.88;4983553;28;20210;-73
2022/02/09 02:23:05;;;;;;;25.07;19.53;;;;;;;8.91;100.00;102259.88;4987150;28;20542;-73
2022/02/09 02:25:56;;;;;;;24.97;19.37;;;;;;;8.91;100.00;102258.97;4991669;28;20214;-73
2022/02/09 02:36:36;;;;;;;23.23;18.47;;;;;;;8.86;100.00;102247.66;4999098;28;20239;-73
2022/02/09 02:56:47;;;;;;;28.20;21.73;;;;;;;8.80;100.00;102258.44;4991335;28;20261;-73
2022/02/09 03:14:45;;;;;;;28.90;20.37;;;;;;;8.65;100.00;102231.28;4990008;28;20206;-73
2022/02/09 03:17:16;;;;;;;36.00;23.40;;;;;;;8.65;100.00;102221.97;4990239;28;20713;-73
2022/02/09 03:22:27;;;;;;;31.83;22.73;;;;;;;8.59;100.00;102226.78;4990038;28;20273;-73
2022/02/09 03:31:06;;;;;;;35.20;23.10;;;;;;;8.56;100.00;102229.16;4986199;28;20232;-73
2022/02/09 03:50:34;;;;;;;53.13;26.13;;;;;;;8.49;100.00;102219.47;4987065;28;20212;-73
2022/02/09 03:53:28;;;;;;;43.17;24.63;;;;;;;8.48;100.00;102216.84;4989602;28;20212;-73
2022/02/09 03:58:37;;;;;;;53.10;27.83;;;;;;;8.49;100.00;102224.56;4989622;28;20202;-73
2022/02/09 04:01:03;;;;;;;44.07;27.63;;;;;;;8.50;100.00;102220.31;4989806;28;20204;-73
2022/02/09 04:03:28;;;;;;;54.17;28.60;;;;;;;8.50;100.00;102215.22;4989852;28;20176;-73
2022/02/09 04:05:54;;;;;;;45.77;26.90;;;;;;;8.52;100.00;102216.19;4991718;28;20688;-73
2022/02/09 04:08:26;;;;;;;46.43;27.47;;;;;;;8.53;100.00;102213.69;4993293;28;20657;-73
2022/02/09 04:11:02;;;;;;;42.00;25.60;;;;;;;8.53;100.00;102215.38;4993001;28;20613;-73
2022/02/09 04:16:31;;;;;;;46.50;25.87;;;;;;;8.51;100.00;102211.88;4991993;28;20261;-73
2022/02/09 04:38:42;;;;;;;36.87;23.17;;;;;;;8.47;100.00;102195.53;5004595;28;20278;-73
2022/02/09 04:43:52;;;;;;;39.40;23.57;;;;;;;8.45;100.00;102193.69;4992443;28;20200;-73
2022/02/09 04:49:12;;;;;;;40.07;24.40;;;;;;;8.43;100.00;102185.09;4990714;28;20180;-73
2022/02/09 04:52:02;;;;;;;38.27;23.43;;;;;;;8.44;100.00;102184.31;5005193;28;20210;-73
2022/02/09 04:54:42;;;;;;;40.97;23.97;;;;;;;8.42;100.00;102181.66;4988158;28;20591;-73
2022/02/09 04:57:16;;;;;;;41.23;23.43;;;;;;;8.43;100.00;102188.50;4995535;28;20223;-73
2022/02/09 05:00:07;;;;;;;42.70;23.87;;;;;;;8.43;100.00;102187.66;4989278;28;20192;-73
2022/02/09 05:24:16;;;;;;;31.37;19.27;;;;;;;8.47;99.57;102171.69;4985587;28;20196;-73
2022/02/09 05:26:48;;;;;;;37.77;21.40;;;;;;;8.47;99.90;102164.03;4994760;28;20200;-73
2022/02/09 05:29:14;;;;;;;36.90;21.70;;;;;;;8.49;99.63;102167.53;4988844;28;20203;-73
2022/02/09 05:31:39;;;;;;;36.90;22.00;;;;;;;8.46;99.73;102159.72;4991745;28;20212;-73
2022/02/09 05:34:06;;;;;;;36.27;20.73;;;;;;;8.46;99.06;102168.25;4989992;28;20212;-73
2022/02/09 05:36:32;;;;;;;35.03;21.70;;;;;;;8.44;99.72;102167.28;4984662;28;20227;-73
2022/02/09 05:38:57;;;;;;;36.50;22.20;;;;;;;8.45;99.59;102173.28;4980623;28;20228;-73
2022/02/09 05:41:23;;;;;;;32.37;21.17;;;;;;;8.45;99.38;102175.84;5001848;28;20298;-73
2022/02/09 05:43:48;;;;;;;37.10;22.37;;;;;;;8.46;99.25;102154.63;4990960;28;20188;-73
2022/02/09 05:46:58;;;;;;;32.83;21.30;;;;;;;8.45;99.08;102155.41;4992409;28;20664;-73
2022/02/09 05:49:32;;;;;;;34.20;20.70;;;;;;;8.46;99.11;102164.81;4994346;28;20561;-73
2022/02/09 05:52:05;;;;;;;35.40;20.80;;;;;;;8.45;99.08;102156.31;4990802;28;20219;-73
2022/02/09 05:59:46;;;;;;;34.37;21.30;;;;;;;8.48;99.00;102156.44;4991288;28;20192;-73
2022/02/09 06:02:11;;;;;;;32.43;21.33;;;;;;;8.42;98.70;102155.25;4996213;28;20266;-73
2022/02/09 06:04:38;;;;;;;33.27;21.43;;;;;;;8.42;99.08;102163.81;4992290;28;20227;-73
2022/02/09 06:07:04;;;;;;;31.30;19.67;;;;;;;8.45;97.87;102161.41;4992947;28;20683;-73
2022/02/09 06:09:29;;;;;;;33.13;20.33;;;;;;;8.46;97.81;102175.03;4989310;28;20188;-73
2022/02/09 06:19:56;;;;;;;33.90;21.57;;;;;;;8.38;98.74;102161.03;4989278;28;20203;-73
2022/02/09 06:22:23;;;;;;;34.60;20.77;;;;;;;8.36;99.12;102160.06;4990934;28;20219;-73
2022/02/09 06:24:49;;;;;;;34.60;22.30;;;;;;;8.35;99.72;102165.97;4990439;28;20545;-73
2022/02/09 06:27:15;;;;;;;29.60;20.20;;;;;;;8.35;99.26;102155.78;4995094;28;20191;-72
2022/02/09 06:29:46;;;;;;;40.13;20.87;;;;;;;8.32;98.96;102156.50;4988227;28;20247;-72
2022/02/09 06:32:12;;;;;;;35.10;20.80;;;;;;;8.32;98.94;102150.50;4993010;28;20223;-73
2022/02/09 06:34:39;;;;;;;35.20;20.43;;;;;;;8.32;99.12;102160.72;5000322;28;20746;-73
2022/02/09 06:39:54;;;;;;;29.97;20.17;;;;;;;8.32;98.36;102146.28;4980218;28;20193;-73
2022/02/09 06:42:23;;;;;;;29.03;20.43;;;;;;;8.35;97.59;102155.78;4974551;28;20203;-72
2022/02/09 06:44:50;;;;;;;30.30;19.37;;;;;;;8.38;97.29;102166.16;4987957;28;20214;-72
2022/02/09 06:47:18;;;;;;;26.17;18.37;;;;;;;8.41;97.24;102158.63;4991613;28;20191;-73
2022/02/09 06:49:44;;;;;;;27.83;20.07;;;;;;;8.40;97.34;102155.22;4984604;28;20699;-73
2022/02/09 06:52:09;;;;;;;27.97;19.37;;;;;;;8.36;97.29;102153.31;4988247;28;20223;-72
2022/02/09 06:54:44;;;;;;;26.80;18.90;;;;;;;8.36;97.91;102152.41;4981985;28;20227;-73
2022/02/09 06:57:31;;;;;;;33.30;20.87;;;;;;;8.30;98.67;102142.78;4981971;28;20672;-73
2022/02/09 06:59:56;;;;;;;32.90;18.67;;;;;;;8.29;98.29;102153.78;4983625;28;20203;-73
2022/02/09 07:02:21;;;;;;;28.83;20.07;;;;;;;8.28;99.10;102149.50;4993019;28;20208;-73
2022/02/09 07:04:49;;;;;;;31.80;20.07;;;;;;;8.27;99.42;102152.84;4990161;28;20195;-73
2022/02/09 07:07:14;;;;;;;30.80;19.67;;;;;;;8.24;99.36;102146.72;4990716;28;20203;-73
2022/02/09 07:09:40;;;;;;;29.93;19.03;;;;;;;8.22;99.02;102158.50;4986132;28;20187;-73
2022/02/09 07:12:06;;;;;;;30.93;20.73;;;;;;;8.17;99.68;102155.72;4982896;28;20611;-73
2022/02/09 07:14:31;;;;;;;33.13;21.03;;;;;;;8.17;100.00;102147.19;4988631;28;20216;-73
2022/02/09 07:16:57;;;;;;;31.47;21.10;;;;;;;8.17;99.50;102154.81;4986374;28;20222;-73
2022/02/09 07:19:23;;;;;;;32.30;20.93;;;;;;;8.15;99.99;102151.34;4989695;28;20210;-74
2022/02/09 07:21:49;;;;;;;33.10;20.73;;;;;;;8.15;100.00;102153.88;4990017;28;20211;-74
2022/02/09 07:24:17;;;;;;;33.87;20.63;;;;;;;8.15;100.00;102157.28;4990030;28;20183;-74
2022/02/09 07:29:14;;;;;;;29.57;20.13;;;;;;;8.16;99.73;102155.63;4989847;28;20223;-74
2022/02/09 07:31:40;;;;;;;31.13;21.50;;;;;;;8.16;99.47;102156.50;4989357;28;20207;-73
2022/02/09 07:34:05;;;;;;;29.10;20.30;;;;;;;8.18;99.31;102143.81;4989804;28;20206;-73
2022/02/09 07:36:38;;;;;;;28.57;20.17;;;;;;;8.21;99.09;102146.56;4988746;28;20650;-74
2022/02/09 07:39:05;;;;;;;30.33;18.77;;;;;;;8.26;98.08;102155.31;4968481;28;20330;-74
2022/02/09 07:41:31;;;;;;;26.77;18.40;;;;;;;8.27;97.65;102150.28;4991005;28;20207;-75
2022/02/09 07:49:00;;;;;;;23.57;17.23;;;;;;;8.33;97.73;102159.91;4993312;28;20191;-74
2022/02/09 07:53:59;;;;;;;23.97;16.37;;;;;;;8.42;95.69;102145.06;4993357;28;20247;-75
2022/02/09 07:56:26;;;;;;;21.27;15.60;;;;;;;8.42;95.53;102150.16;4991936;28;20657;-74
2022/02/09 07:58:52;;;;;;;25.17;17.00;;;;;;;8.41;95.17;102149.31;4989123;28;20188;-73
2022/02/09 08:01:17;;;;;;;24.07;16.17;;;;;;;8.44;95.05;102146.88;4990185;28;20222;-74
2022/02/09 08:03:43;;;;;;;22.77;16.67;;;;;;;8.46;94.79;102136.75;4992844;28;20212;-73
2022/02/09 08:06:09;;;;;;;23.50;16.33;;;;;;;8.48;94.20;102133.47;4993162;28;20198;-73
2022/02/09 08:08:36;;;;;;;23.10;16.47;;;;;;;8.50;94.88;102129.31;4991329;28;20187;-73
2022/02/09 08:25:32;;;;;;;16.77;13.93;;;;;;;8.60;92.96;102123.84;4998349;28;20214;-73
2022/02/09 08:34:55;;;;;;;14.93;12.07;;;;;;;8.65;91.72;102111.28;4992714;28;20239;-74
2022/02/09 08:37:21;;;;;;;18.73;12.80;;;;;;;8.69;92.26;102123.41;4985330;28;20206;-74
2022/02/09 08:39:48;;;;;;;16.10;12.83;;;;;;;8.66;92.37;102113.91;4991192;28;20199;-74
2022/02/09 08:42:14;;;;;;;17.70;12.83;;;;;;;8.69;92.33;102105.53;4979681;28;20760;-74
2022/02/09 08:44:39;;;;;;;15.07;12.00;;;;;;;8.72;92.04;102115.91;5005875;28;20271;-74
2022/02/09 08:47:04;;;;;;;16.17;12.13;;;;;;;8.70;91.91;102115.81;4980977;28;20602;-74
2022/02/09 08:49:30;;;;;;;18.43;12.77;;;;;;;8.73;92.29;102108.31;4988307;28;20196;-75
2022/02/09 08:51:57;;;;;;;14.30;11.90;;;;;;;8.77;92.38;102109.31;5000168;28;20302;-74
2022/02/09 08:54:22;;;;;;;15.93;11.73;;;;;;;8.76;91.30;102121.19;4991312;28;20214;-74
2022/02/09 08:56:47;;;;;;;13.23;10.67;;;;;;;8.77;91.18;102117.88;4989730;28;20262;-73
2022/02/09 08:59:13;;;;;;;14.70;11.57;;;;;;;8.78;90.91;102109.41;4983439;28;20191;-74
2022/02/09 09:01:42;;;;;;;14.57;10.33;;;;;;;8.79;90.57;102103.47;4993737;28;20216;-74
2022/02/09 09:04:22;;;;;;;11.90;10.23;;;;;;;8.81;90.90;102103.56;4989556;28;20191;-73
2022/02/09 09:06:54;;;;;;;14.10;10.23;;;;;;;8.86;90.10;102107.19;4989788;28;20200;-74
2022/02/09 09:58:22;;;;;;;13.13;10.40;;;;;;;9.71;86.34;102084.63;4984954;28;20194;-74
2022/02/09 10:01:20;;;;;;;11.40;10.20;;;;;;;9.69;86.25;102084.59;4987934;28;20216;-74
2022/02/09 10:31:44;;;;;;;11.43;9.60;;;;;;;9.97;84.35;102100.28;4989231;28;20702;-74
2022/02/09 10:34:18;;;;;;;12.60;9.93;;;;;;;9.98;83.54;102093.47;4993975;28;20246;-74
2022/02/09 10:36:51;;;;;;;10.87;9.00;;;;;;;10.18;83.48;102105.47;4989696;28;20198;-75
2022/02/09 10:39:23;;;;;;;10.50;9.37;;;;;;;10.00;83.72;102089.31;4991393;28;20693;-74
2022/02/09 10:42:10;;;;;;;12.03;9.17;;;;;;;10.06;83.31;102085.34;4980199;28;20215;-74
2022/02/09 10:44:48;;;;;;;9.13;8.23;;;;;;;10.06;83.84;102084.47;4996093;28;20238;-74
2022/02/09 10:47:21;;;;;;;12.67;9.40;;;;;;;10.09;83.74;102090.59;4983891;28;20191;-74
2022/02/09 10:50:33;;;;;;;9.33;8.43;;;;;;;10.09;83.67;102092.28;4991099;28;20639;-74
2022/02/09 10:53:02;;;;;;;9.63;8.60;;;;;;;10.05;83.26;102108.31;4983494;28;20199;-74
2022/02/09 10:55:38;;;;;;;12.03;8.37;;;;;;;10.02;82.30;102101.34;4988497;28;20306;-74
2022/02/09 10:58:10;;;;;;;9.57;8.57;;;;;;;10.04;82.53;102099.75;4983293;28;20200;-74
2022/02/09 11:00:37;;;;;;;10.70;8.20;;;;;;;10.01;82.11;102097.06;4984224;28;20629;-74
2022/02/09 11:03:03;;;;;;;10.00;7.73;;;;;;;10.01;81.56;102081.72;4992283;28;20195;-74
2022/02/09 11:05:28;;;;;;;11.07;8.27;;;;;;;10.12;81.08;102087.28;4986235;28;20202;-74
2022/02/09 11:07:54;;;;;;;8.63;7.60;;;;;;;10.15;82.02;102079.72;5002771;28;20951;-73
2022/02/09 11:10:21;;;;;;;8.63;7.33;;;;;;;10.18;81.08;102080.72;5001199;28;20203;-74
2022/02/09 11:12:46;;;;;;;10.30;7.63;;;;;;;10.26;81.65;102073.34;4987172;28;20227;-74
2022/02/09 11:15:18;;;;;;;8.07;7.10;;;;;;;10.27;80.97;102075.13;4985285;28;20254;-74
2022/02/09 11:17:47;;;;;;;8.93;7.00;;;;;;;10.35;81.14;102077.16;4991350;28;20258;-74
2022/02/09 11:20:26;;;;;;;7.37;6.67;;;;;;;10.38;81.56;102076.41;4992617;28;20756;-74
2022/02/09 11:22:51;;;;;;;7.43;6.63;;;;;;;10.21;81.63;102077.41;4986963;28;20184;-74
2022/02/09 11:25:28;;;;;;;8.00;6.63;;;;;;;10.14;81.58;102070.31;4993281;28;20266;-74
2022/02/09 11:28:24;;;;;;;10.10;7.23;;;;;;;10.07;81.54;102071.75;4985473;28;20188;-74
2022/02/09 11:31:26;;;;;;;6.87;6.27;;;;;;;10.15;81.81;102067.81;4999002;28;20323;-75
2022/02/09 11:33:57;;;;;;;7.37;6.50;;;;;;;10.17;81.37;102067.84;4983846;28;20204;-73
2022/02/09 11:36:33;;;;;;;10.17;6.23;;;;;;;10.21;81.38;102075.75;5010649;28;20600;-74
2022/02/09 11:39:21;;;;;;;6.93;6.23;;;;;;;10.16;81.00;102072.13;4986177;28;20203;-75
2022/02/09 11:42:00;;;;;;;8.33;6.23;;;;;;;10.09;82.31;102076.94;4997528;28;20223;-75
2022/02/09 11:44:55;;;;;;;8.73;6.73;;;;;;;10.06;82.67;102082.81;4992498;28;20196;-74
2022/02/09 11:50:49;;;;;;;7.27;6.00;;;;;;;10.03;82.66;102085.19;4989702;28;20202;-75
2022/02/09 11:56:40;;;;;;;8.00;6.57;;;;;;;10.03;81.97;102069.84;4992272;28;20215;-74
2022/02/09 11:59:18;;;;;;;7.43;6.73;;;;;;;10.02;82.41;102080.00;4993156;28;20195;-73
2022/02/09 12:10:18;;;;;;;10.20;6.73;;;;;;;9.98;82.38;102076.44;4973974;28;20211;-75
2022/02/09 12:12:52;;;;;;;7.53;6.83;;;;;;;9.92;82.90;102080.44;4988852;28;20181;-74
2022/02/09 12:15:45;;;;;;;6.90;6.30;;;;;;;9.93;83.59;102071.94;4988722;28;20220;-73
2022/02/09 12:18:24;;;;;;;9.33;7.40;;;;;;;9.96;83.49;102070.38;4973508;28;20191;-74
2022/02/09 12:20:55;;;;;;;7.97;6.67;;;;;;;9.96;83.40;102070.38;4973657;28;20230;-75
2022/02/09 12:23:31;;;;;;;10.07;7.13;;;;;;;9.96;83.86;102078.06;4988944;28;20227;-74
2022/02/09 12:25:56;;;;;;;7.77;6.93;;;;;;;9.94;83.84;102066.91;4992728;28;20176;-74
2022/02/09 12:28:34;;;;;;;8.57;7.03;;;;;;;9.89;83.20;102067.50;4992867;28;20238;-74
2022/02/09 12:31:02;;;;;;;7.60;6.90;;;;;;;9.92;83.88;102065.09;4992853;28;20231;-74
2022/02/09 12:33:28;;;;;;;7.30;6.17;;;;;;;9.96;83.80;102069.53;4992977;28;20785;-74
2022/02/09 12:36:12;;;;;;;7.37;6.67;;;;;;;9.96;83.50;102060.16;4993038;28;20231;-74
2022/02/09 12:38:37;;;;;;;6.87;6.20;;;;;;;10.01;84.58;102057.78;4992714;28;20204;-74
2022/02/09 12:41:22;;;;;;;8.00;6.60;;;;;;;9.95;84.22;102048.16;4989233;28;20218;-74
2022/02/09 12:43:56;;;;;;;7.23;6.53;;;;;;;9.99;84.32;102073.06;4982060;28;20224;-74
2022/02/09 12:46:25;;;;;;;7.77;5.97;;;;;;;9.92;84.16;102050.63;4973289;28;20223;-74
2022/02/09 12:48:51;;;;;;;8.13;6.60;;;;;;;9.96;84.30;102062.69;4973175;28;20672;-74
2022/02/09 12:51:25;;;;;;;7.07;6.37;;;;;;;9.97;83.72;102048.25;4973382;28;20977;-74
2022/02/09 12:53:50;;;;;;;7.30;6.23;;;;;;;9.99;84.12;102049.16;4988143;28;20622;-74
2022/02/09 12:56:21;;;;;;;6.77;5.77;;;;;;;10.00;84.21;102048.38;4979510;28;20207;-74
2022/02/09 12:58:54;;;;;;;7.03;5.90;;;;;;;10.03;84.01;102049.38;4992312;28;20191;-74
2022/02/09 13:01:20;;;;;;;6.13;5.53;;;;;;;10.04;84.47;102047.69;4992341;28;20768;-74
2022/02/09 13:03:45;;;;;;;8.83;6.17;;;;;;;10.06;84.75;102051.22;4992415;28;20223;-73
2022/02/09 13:06:11;;;;;;;6.87;6.17;;;;;;;10.04;84.46;102048.59;5007274;28;20199;-74
2022/02/09 13:08:36;;;;;;;6.57;5.97;;;;;;;10.01;84.49;102047.56;4991975;28;20226;-74
2022/02/09 13:13:39;;;;;;;6.23;5.63;;;;;;;9.99;85.87;102046.59;4992086;28;20253;-74
2022/02/09 13:16:31;;;;;;;5.23;4.47;;;;;;;9.92;85.40;102052.28;4991872;28;20188;-74
2022/02/09 13:25:00;;;;;;;4.10;3.40;;;;;;;9.88;85.84;102035.94;4992107;28;20175;-74
2022/02/09 14:05:07;;;;;;;4.40;3.97;;;;;;;9.85;87.69;102050.28;4991088;28;20544;-73
2022/02/09 14:12:39;;;;;;;4.93;4.43;;;;;;;9.82;87.61;102050.16;4991124;28;20215;-74
2022/02/09 14:18:06;;;;;;;4.23;3.83;;;;;;;9.81;88.32;102051.84;4991019;28;20195;-74
2022/02/09 14:23:59;;;;;;;4.70;4.30;;;;;;;9.80;89.12;102059.44;4991108;28;20268;-74
2022/02/09 14:48:31;;;;;;;6.70;6.00;;;;;;;9.52;92.27;102054.88;4989078;28;20642;-74
2022/02/09 14:53:41;;;;;;;7.17;6.37;;;;;;;9.49;92.74;102056.44;4990459;28;20267;-74
2022/02/09 14:56:19;;;;;;;7.10;6.40;;;;;;;9.44;93.70;102056.22;4990315;28;20195;-74
2022/02/09 14:58:47;;;;;;;7.27;6.53;;;;;;;9.39;93.54;102064.47;4990254;28;20198;-73
2022/02/09 15:01:18;;;;;;;8.17;7.37;;;;;;;9.34;93.96;102048.97;4989060;28;20215;-74
2022/02/09 15:04:07;;;;;;;8.50;7.43;;;;;;;9.32;94.22;102062.47;4990557;28;20708;-74
2022/02/09 15:09:14;;;;;;;9.17;7.93;;;;;;;9.30;95.61;102062.41;4990249;28;20310;-74
2022/02/09 15:14:59;;;;;;;10.37;9.10;;;;;;;9.21;96.43;102058.59;4988720;28;20239;-74
2022/02/09 15:22:32;;;;;;;12.67;9.30;;;;;;;9.16;97.15;102070.25;4975771;28;20240;-75
2022/02/09 15:24:57;;;;;;;12.87;9.67;;;;;;;9.12;97.73;102064.16;4960519;28;20207;-75
2022/02/09 15:27:23;;;;;;;11.03;9.80;;;;;;;9.14;98.18;102070.22;4970592;28;20670;-74
2022/02/09 15:29:50;;;;;;;11.23;9.97;;;;;;;9.08;98.17;102079.28;4968479;28;20211;-75
2022/02/09 15:32:31;;;;;;;11.57;9.43;;;;;;;9.01;98.36;102069.59;4969853;28;20662;-75
2022/02/09 15:35:02;;;;;;;11.60;10.00;;;;;;;9.06;98.42;102073.22;4969774;28;20278;-75
2022/02/09 15:37:46;;;;;;;11.20;9.80;;;;;;;9.01;98.44;102067.91;4952494;28;20196;-74
2022/02/09 15:40:24;;;;;;;11.93;10.63;;;;;;;9.00;98.35;102072.94;4969900;28;20262;-74
2022/02/09 15:56:45;;;;;;;13.73;10.70;;;;;;;8.93;98.86;102086.22;4951193;29;20193;-75
2022/02/09 15:59:34;;;;;;;12.80;10.80;;;;;;;8.92;99.48;102081.94;4951073;29;20605;-75
2022/02/09 16:09:53;;;;;;;12.30;11.00;;;;;;;8.91;99.38;102093.84;4973471;28;20187;-74
2022/02/09 16:23:23;;;;;;;12.90;11.53;;;;;;;8.89;99.96;102082.66;4973917;28;20177;-74
2022/02/09 16:25:57;;;;;;;13.90;10.67;;;;;;;8.88;99.92;102086.03;4973932;28;20192;-74
2022/02/09 16:34:08;;;;;;;13.50;11.53;;;;;;;8.87;99.91;102093.63;4973469;28;20180;-74
2022/02/09 16:44:37;;;;;;;15.83;12.43;;;;;;;8.81;100.00;102095.91;4954075;29;20185;-74
2022/02/09 16:47:05;;;;;;;11.80;10.30;;;;;;;8.81;100.00;102099.31;4954074;29;20232;-75
2022/02/09 16:49:44;;;;;;;13.53;11.47;;;;;;;8.79;100.00;102106.03;4953694;29;20181;-74
2022/02/09 16:52:22;;;;;;;13.17;11.20;;;;;;;8.80;100.00;102104.38;4952498;29;20271;-74
2022/02/09 17:08:26;;;;;;;14.03;11.63;;;;;;;8.80;100.00;102112.03;4973004;28;20271;-74
2022/02/09 17:11:16;;;;;;;4.10;3.70;;;;;;;8.67;100.00;102120.78;4972350;28;20176;-74
2022/02/09 17:19:34;;;;;;;7.37;4.60;;;;;;;8.58;100.00;102132.25;4972405;28;20267;-73
2022/02/09 17:22:00;;;;;;;7.63;4.53;;;;;;;8.52;100.00;102135.38;4972678;28;20244;-73
2022/02/09 17:24:25;;;;;;;12.73;4.90;;;;;;;8.47;100.00;102151.28;4972521;28;20304;-74
2022/02/09 17:26:53;;;;;;;7.63;4.60;;;;;;;8.44;99.50;102146.88;4972654;28;20196;-73
2022/02/09 17:29:23;;;;;;;9.67;4.20;;;;;;;8.45;98.77;102152.88;4972355;28;20721;-73
2022/02/09 17:37:09;;;;;;;11.17;4.53;;;;;;;8.40;97.70;102144.13;4972519;28;20882;-74
2022/02/09 17:53:28;;;;;;;11.13;5.10;;;;;;;8.33;97.30;102152.25;4972086;28;20239;-74
2022/02/09 17:56:03;;;;;;;9.07;4.93;;;;;;;8.34;97.32;102154.03;4970912;28;20698;-75
2022/02/09 17:58:35;;;;;;;8.50;4.53;;;;;;;8.32;97.04;102153.94;4971946;28;20195;-74
2022/02/09 18:01:01;;;;;;;9.47;4.77;;;;;;;8.30;96.89;102155.53;4971951;28;20216;-73
2022/02/09 18:03:28;;;;;;;10.83;5.23;;;;;;;8.28;97.46;102158.81;4970557;28;20242;-74
2022/02/09 18:05:56;;;;;;;9.20;4.90;;;;;;;8.27;97.09;102159.63;4971718;28;20234;-74
2022/02/09 18:08:36;;;;;;;9.97;4.30;;;;;;;8.27;97.04;102162.16;4971348;28;20300;-74
2022/02/09 18:11:26;;;;;;;11.37;4.47;;;;;;;8.24;97.25;102165.44;4971808;28;20203;-75
2022/02/09 18:27:56;;;;;;;11.73;4.90;;;;;;;8.13;97.76;102168.22;4971535;28;20185;-75
2022/02/09 18:38:20;;;;;;;11.00;5.00;;;;;;;8.14;96.80;102181.06;4969835;28;20200;-76
2022/02/09 18:43:32;;;;;;;11.93;5.80;;;;;;;8.41;96.69;102164.59;4971162;28;20192;-74
2022/02/09 18:46:07;;;;;;;9.37;4.97;;;;;;;8.45;96.50;102163.06;4970455;28;20190;-75
2022/02/09 19:15:13;;;;;;;14.17;6.07;;;;;;;7.88;96.16;102168.66;4951823;29;20573;-75
2022/02/09 19:17:48;;;;;;;13.77;6.30;;;;;;;7.88;96.18;102165.25;4951649;28;20205;-74
2022/02/09 19:20:42;;;;;;;13.60;6.27;;;;;;;7.88;96.89;102170.34;4951534;29;20714;-75
2022/02/09 19:43:40;;;;;;;15.23;8.67;;;;;;;7.75;96.56;102165.41;4957506;28;20255;-74
2022/02/09 19:45:42;;;;;;;15.47;8.87;;;;;;;7.76;97.24;102178.25;4954966;29;20200;-74
2022/02/09 19:48:21;;;;;;;17.10;9.13;;;;;;;7.76;97.22;102174.81;4955085;29;20604;-73
2022/02/09 19:51:03;;;;;;;12.63;7.83;;;;;;;7.74;97.30;102176.41;4955222;28;20209;-74
2022/02/09 19:56:17;;;;;;;16.23;8.73;;;;;;;7.71;97.71;102182.22;4955098;29;20205;-72
2022/02/09 19:58:54;;;;;;;19.50;8.37;;;;;;;7.71;97.00;102173.69;4955005;29;20186;-72
2022/02/09 20:01:21;;;;;;;15.77;9.10;;;;;;;7.67;97.63;102175.22;4961995;28;20219;-71
2022/02/09 20:03:47;;;;;;;21.87;9.17;;;;;;;7.66;97.15;102170.91;4974154;28;20215;-73
2022/02/09 20:06:13;;;;;;;15.47;9.03;;;;;;;7.66;97.39;102172.56;4974162;28;20647;-71
2022/02/09 20:08:39;;;;;;;17.93;9.63;;;;;;;7.66;97.43;102170.91;4974003;28;20203;-72
2022/02/09 20:11:07;;;;;;;18.93;9.13;;;;;;;7.68;98.13;102171.84;4974189;28;20214;-72
2022/02/09 20:13:33;;;;;;;20.03;9.50;;;;;;;7.68;97.44;102179.50;4974046;28;20663;-72
2022/02/09 20:15:59;;;;;;;17.33;9.03;;;;;;;7.64;97.44;102176.72;4974180;28;20311;-74
2022/02/09 20:18:24;;;;;;;18.07;9.00;;;;;;;7.64;97.62;102181.84;4972265;28;20279;-72
2022/02/09 20:20:50;;;;;;;17.60;9.37;;;;;;;7.61;96.80;102179.97;4973815;28;20310;-72
2022/02/09 20:23:15;;;;;;;15.80;8.93;;;;;;;7.61;97.83;102184.22;4972644;28;20198;-72
2022/02/09 20:25:40;;;;;;;16.77;8.70;;;;;;;7.59;97.28;102178.13;4973852;28;20552;-72
2022/02/09 20:28:07;;;;;;;23.00;9.07;;;;;;;7.54;97.74;102183.00;4973557;28;20243;-72
2022/02/09 20:30:38;;;;;;;17.93;8.43;;;;;;;7.56;98.12;102181.41;4988422;28;20272;-72
2022/02/09 20:33:09;;;;;;;16.73;8.67;;;;;;;7.55;97.75;102181.34;4972208;28;20287;-74
2022/02/09 20:35:34;;;;;;;14.97;8.30;;;;;;;7.56;96.87;102180.53;4972093;28;20220;-74
2022/02/09 20:37:59;;;;;;;16.97;7.63;;;;;;;7.58;97.16;102172.19;4973396;28;20188;-72
2022/02/09 20:40:33;;;;;;;16.13;7.70;;;;;;;7.56;97.41;102188.19;4973272;28;20221;-74
2022/02/09 20:43:01;;;;;;;17.13;7.27;;;;;;;7.57;96.58;102185.72;4958731;28;20193;-72
2022/02/09 20:48:00;;;;;;;17.33;7.53;;;;;;;7.58;97.19;102184.03;4952334;28;20686;-74
2022/02/09 20:50:26;;;;;;;15.27;7.83;;;;;;;7.59;97.05;102190.88;4968456;28;20228;-72
2022/02/09 20:52:52;;;;;;;15.67;7.37;;;;;;;7.59;97.73;102179.03;4972996;28;20219;-72
2022/02/09 20:55:18;;;;;;;19.00;7.23;;;;;;;7.60;97.11;102185.00;4973207;28;20228;-74
2022/02/09 20:57:43;;;;;;;15.13;7.07;;;;;;;7.61;97.06;102190.16;4973121;28;20204;-74
2022/02/09 21:00:16;;;;;;;13.93;6.50;;;;;;;7.60;97.95;102192.66;4973033;28;20192;-74
2022/02/09 21:02:50;;;;;;;14.57;7.07;;;;;;;7.59;96.89;102198.53;4971963;28;20279;-74
2022/02/09 21:05:31;;;;;;;17.77;7.07;;;;;;;7.55;97.12;102199.19;4973049;28;20260;-74
2022/02/09 21:08:14;;;;;;;14.70;6.67;;;;;;;7.53;97.49;102199.09;4972832;28;20693;-72
2022/02/09 21:13:17;;;;;;;18.37;7.43;;;;;;;7.56;97.32;102200.94;4971854;28;20726;-72
2022/02/09 21:58:11;;;;;;;16.97;6.83;;;;;;;7.45;96.05;102192.72;4952783;28;20256;-72
2022/02/09 22:01:13;;;;;;;15.30;6.67;;;;;;;7.42;95.78;102184.03;4967026;28;20687;-75
2022/02/09 22:22:15;;;;;;;16.43;8.33;;;;;;;7.07;97.16;102174.50;4952270;29;20217;-74
2022/02/09 22:30:28;;;;;;;15.57;9.10;;;;;;;6.85;97.61;102166.47;4971320;28;20184;-72
2022/02/09 22:57:10;;;;;;;24.20;11.30;;;;;;;6.59;97.93;102161.59;4948959;29;20204;-74
2022/02/09 22:59:47;;;;;;;18.90;11.57;;;;;;;6.54;98.87;102163.00;4948781;29;20283;-74
2022/02/09 23:02:26;;;;;;;26.60;11.67;;;;;;;6.47;97.62;102158.38;4960922;28;20235;-74
2022/02/09 23:05:30;;;;;;;19.03;10.10;;;;;;;6.45;98.56;102167.56;4969551;28;20271;-74